sensor_id;sensor_type;location;lat;lon;timestamp;pressure;altitude;pressure_sealevel;temperature;humidity
14253;BME280;7210;51.502;10.722;2022-08-19T00:00:40;99099.75;;;19.95;100.00
14253;BME280;7210;51.502;10.722;2022-08-19T00:03:08;99091.19;;;19.93;100.00
14253;BME280;7210;51.502;10.722;2022-08-19T00:05:35;99102.94;;;19.97;100.00
14253;BME280;7210;51.502;10.722;2022-08-19T00:08:03;99099.94;;;19.98;100.00
14253;BME280;7210;51.502;10.722;2022-08-19T00:10:32;99103.25;;;19.95;100.00
14253;BME280;7210;51.502;10.722;2022-08-19T00:12:59;99090.03;;;19.85;100.00
14253;BME280;7210;51.502;10.722;2022-08-19T00:15:27;99092.59;;;19.90;100.00
14253;BME280;7210;51.502;10.722;2022-08-19T00:17:54;99086.84;;;19.83;100.00
14253;BME280;7210;51.502;10.722;2022-08-19T00:20:22;99090.22;;;19.89;100.00
14253;BME280;7210;51.502;10.722;2022-08-19T00:22:50;99093.41;;;19.91;100.00
14253;BME280;7210;51.502;10.722;2022-08-19T00:25:17;99096.88;;;19.91;100.00
14253;BME280;7210;51.502;10.722;2022-08-19T00:27:46;99094.38;;;19.95;100.00
14253;BME280;7210;51.502;10.722;2022-08-19T00:30:14;99088.44;;;19.98;100.00
14253;BME280;7210;51.502;10.722;2022-08-19T00:32:42;99090.00;;;19.99;100.00
14253;BME280;7210;51.502;10.722;2022-08-19T00:35:09;99087.94;;;19.96;100.00
14253;BME280;7210;51.502;10.722;2022-08-19T00:37:38;99087.94;;;19.96;100.00
14253;BME280;7210;51.502;10.722;2022-08-19T00:40:07;99088.53;;;19.93;100.00
14253;BME280;7210;51.502;10.722;2022-08-19T00:42:35;99099.56;;;19.91;100.00
14253;BME280;7210;51.502;10.722;2022-08-19T00:45:13;99093.41;;;19.91;100.00
14253;BME280;7210;51.502;10.722;2022-08-19T00:47:43;99102.94;;;19.97;100.00
14253;BME280;7210;51.502;10.722;2022-08-19T00:50:15;99090.63;;;19.96;100.00
14253;BME280;7210;51.502;10.722;2022-08-19T00:52:46;99094.38;;;19.95;100.00
14253;BME280;7210;51.502;10.722;2022-08-19T00:55:20;99089.53;;;19.97;100.00
14253;BME280;7210;51.502;10.722;2022-08-19T00:57:53;99056.63;;;19.78;100.00
14253;BME280;7210;51.502;10.722;2022-08-19T01:00:25;99076.09;;;19.97;100.00
14253;BME280;7210;51.502;10.722;2022-08-19T01:02:54;99075.22;;;20.01;100.00
14253;BME280;7210;51.502;10.722;2022-08-19T01:05:24;99072.91;;;19.95;100.00
14253;BME280;7210;51.502;10.722;2022-08-19T01:08:03;99069.72;;;19.93;100.00
14253;BME280;7210;51.502;10.722;2022-08-19T01:10:36;99067.06;;;19.93;100.00
14253;BME280;7210;51.502;10.722;2022-08-19T01:13:04;99068.75;;;19.89;100.00
14253;BME280;7210;51.502;10.722;2022-08-19T01:15:39;99062.88;;;19.87;100.00
14253;BME280;7210;51.502;10.722;2022-08-19T01:18:11;99060.19;;;19.87;100.00
14253;BME280;7210;51.502;10.722;2022-08-19T01:20:40;99057.63;;;19.82;100.00
14253;BME280;7210;51.502;10.722;2022-08-19T01:23:09;99054.75;;;19.78;100.00
14253;BME280;7210;51.502;10.722;2022-08-19T01:25:45;99059.31;;;19.78;100.00
14253;BME280;7210;51.502;10.722;2022-08-19T01:28:19;99058.22;;;19.79;100.00
14253;BME280;7210;51.502;10.722;2022-08-19T01:30:47;99038.25;;;19.71;100.00
14253;BME280;7210;51.502;10.722;2022-08-19T01:33:16;99053.44;;;19.76;100.00
14253;BME280;7210;51.502;10.722;2022-08-19T01:35:43;99048.09;;;19.76;100.00
14253;BME280;7210;51.502;10.722;2022-08-19T01:38:24;99050.97;;;19.79;100.00
14253;BME280;7210;51.502;10.722;2022-08-19T01:40:51;99057.91;;;19.80;100.00
14253;BME280;7210;51.502;10.722;2022-08-19T01:43:19;99043.50;;;19.90;100.00
14253;BME280;7210;51.502;10.722;2022-08-19T01:45:47;99054.34;;;19.85;100.00
14253;BME280;7210;51.502;10.722;2022-08-19T01:48:14;99054.34;;;19.85;100.00
14253;BME280;7210;51.502;10.722;2022-08-19T01:50:41;99054.13;;;19.81;100.00
14253;BME280;7210;51.502;10.722;2022-08-19T01:53:12;99049.47;;;19.73;100.00
14253;BME280;7210;51.502;10.722;2022-08-19T01:55:42;99057.72;;;19.77;100.00
14253;BME280;7210;51.502;10.722;2022-08-19T01:58:15;99048.97;;;19.85;100.00
14253;BME280;7210;51.502;10.722;2022-08-19T02:00:44;99046.91;;;19.82;100.00
14253;BME280;7210;51.502;10.722;2022-08-19T02:03:12;99051.16;;;19.83;100.00
14253;BME280;7210;51.502;10.722;2022-08-19T02:05:41;99044.50;;;19.80;100.00
14253;BME280;7210;51.502;10.722;2022-08-19T02:11:20;99043.91;;;19.70;100.00
14253;BME280;7210;51.502;10.722;2022-08-19T02:13:48;99049.00;;;19.71;100.00
14253;BME280;7210;51.502;10.722;2022-08-19T02:16:17;99049.88;;;19.67;100.00
14253;BME280;7210;51.502;10.722;2022-08-19T02:22:00;99050.47;;;19.64;100.00
14253;BME280;7210;51.502;10.722;2022-08-19T02:24:28;99052.09;;;19.65;100.00
14253;BME280;7210;51.502;10.722;2022-08-19T02:27:01;99051.28;;;19.64;100.00
14253;BME280;7210;51.502;10.722;2022-08-19T02:29:28;99057.94;;;19.67;100.00
14253;BME280;7210;51.502;10.722;2022-08-19T02:31:56;99048.31;;;19.66;100.00
14253;BME280;7210;51.502;10.722;2022-08-19T02:34:24;99048.09;;;19.62;100.00
14253;BME280;7210;51.502;10.722;2022-08-19T02:36:51;99041.16;;;19.61;100.00
14253;BME280;7210;51.502;10.722;2022-08-19T02:39:18;99037.06;;;19.64;100.00
14253;BME280;7210;51.502;10.722;2022-08-19T02:41:45;99039.03;;;19.58;100.00
14253;BME280;7210;51.502;10.722;2022-08-19T02:44:15;99039.25;;;19.62;100.00
14253;BME280;7210;51.502;10.722;2022-08-19T02:46:44;99039.84;;;19.59;100.00
14253;BME280;7210;51.502;10.722;2022-08-19T02:49:12;99040.34;;;19.61;100.00
14253;BME280;7210;51.502;10.722;2022-08-19T02:51:45;99032.38;;;19.56;100.00
14253;BME280;7210;51.502;10.722;2022-08-19T02:54:18;99025.66;;;19.45;100.00
14253;BME280;7210;51.502;10.722;2022-08-19T02:56:48;99036.78;;;19.52;100.00
14253;BME280;7210;51.502;10.722;2022-08-19T02:59:16;99032.78;;;19.49;100.00
14253;BME280;7210;51.502;10.722;2022-08-19T03:01:45;99025.66;;;19.45;100.00
14253;BME280;7210;51.502;10.722;2022-08-19T03:04:15;99021.97;;;19.41;100.00
14253;BME280;7210;51.502;10.722;2022-08-19T03:06:46;99024.47;;;19.38;100.00
14253;BME280;7210;51.502;10.722;2022-08-19T03:09:16;99026.63;;;19.36;100.00
14253;BME280;7210;51.502;10.722;2022-08-19T03:11:44;99038.16;;;19.36;100.00
14253;BME280;7210;51.502;10.722;2022-08-19T03:14:12;99041.13;;;19.35;100.00
14253;BME280;7210;51.502;10.722;2022-08-19T03:16:45;99041.94;;;19.35;100.00
14253;BME280;7210;51.502;10.722;2022-08-19T03:19:15;99050.47;;;19.37;100.00
14253;BME280;7210;51.502;10.722;2022-08-19T03:21:43;99049.88;;;19.40;100.00
14253;BME280;7210;51.502;10.722;2022-08-19T03:24:13;99051.66;;;19.44;100.00
14253;BME280;7210;51.502;10.722;2022-08-19T03:26:44;99059.41;;;19.46;100.00
14253;BME280;7210;51.502;10.722;2022-08-19T03:29:12;99050.47;;;19.50;100.00
14253;BME280;7210;51.502;10.722;2022-08-19T03:31:43;99057.41;;;19.51;100.00
14253;BME280;7210;51.502;10.722;2022-08-19T03:34:11;99064.19;;;19.49;100.00
14253;BME280;7210;51.502;10.722;2022-08-19T03:36:39;99069.56;;;19.49;100.00
14253;BME280;7210;51.502;10.722;2022-08-19T03:39:06;99072.13;;;19.54;100.00
14253;BME280;7210;51.502;10.722;2022-08-19T03:41:39;99071.94;;;19.50;100.00
14253;BME280;7210;51.502;10.722;2022-08-19T03:44:07;99065.38;;;19.43;100.00
14253;BME280;7210;51.502;10.722;2022-08-19T03:46:54;99075.91;;;19.53;100.00
14253;BME280;7210;51.502;10.722;2022-08-19T03:49:31;99085.03;;;19.52;100.00
14253;BME280;7210;51.502;10.722;2022-08-19T03:51:59;99088.03;;;19.50;100.00
14253;BME280;7210;51.502;10.722;2022-08-19T03:54:28;99093.97;;;19.48;100.00
14253;BME280;7210;51.502;10.722;2022-08-19T03:56:56;99092.97;;;19.43;100.00
14253;BME280;7210;51.502;10.722;2022-08-19T03:59:28;99087.41;;;19.40;100.00
14253;BME280;7210;51.502;10.722;2022-08-19T04:02:07;99081.47;;;19.43;100.00
14253;BME280;7210;51.502;10.722;2022-08-19T04:04:36;99067.75;;;19.44;100.00
14253;BME280;7210;51.502;10.722;2022-08-19T04:07:04;99081.06;;;19.36;100.00
14253;BME280;7210;51.502;10.722;2022-08-19T04:09:34;99074.09;;;19.35;100.00
14253;BME280;7210;51.502;10.722;2022-08-19T04:12:04;99076.88;;;19.30;100.00
14253;BME280;7210;51.502;10.722;2022-08-19T04:14:32;99076.09;;;19.30;100.00
14253;BME280;7210;51.502;10.722;2022-08-19T04:17:03;99080.03;;;19.32;100.00
14253;BME280;7210;51.502;10.722;2022-08-19T04:19:33;99074.69;;;19.32;100.00
14253;BME280;7210;51.502;10.722;2022-08-19T04:22:00;99072.59;;;19.29;100.00
14253;BME280;7210;51.502;10.722;2022-08-19T04:24:28;99075.88;;;19.26;100.00
14253;BME280;7210;51.502;10.722;2022-08-19T04:26:56;99063.53;;;19.25;100.00
14253;BME280;7210;51.502;10.722;2022-08-19T04:29:26;99080.03;;;19.32;100.00
14253;BME280;7210;51.502;10.722;2022-08-19T04:31:56;99083.63;;;19.28;100.00
14253;BME280;7210;51.502;10.722;2022-08-19T04:34:28;99075.88;;;19.26;100.00
14253;BME280;7210;51.502;10.722;2022-08-19T04:36:58;99081.25;;;19.26;100.00
14253;BME280;7210;51.502;10.722;2022-08-19T04:39:29;99074.47;;;19.29;100.00
14253;BME280;7210;51.502;10.722;2022-08-19T04:42:10;99067.03;;;19.26;100.00
14253;BME280;7210;51.502;10.722;2022-08-19T04:44:56;99069.50;;;19.22;100.00
14253;BME280;7210;51.502;10.722;2022-08-19T04:47:24;99079.63;;;19.25;100.00
14253;BME280;7210;51.502;10.722;2022-08-19T04:49:53;99072.69;;;19.24;100.00
14253;BME280;7210;51.502;10.722;2022-08-19T04:52:20;99076.47;;;19.23;100.00
14253;BME280;7210;51.502;10.722;2022-08-19T04:54:48;99075.88;;;19.26;100.00
14253;BME280;7210;51.502;10.722;2022-08-19T04:57:16;99075.28;;;19.29;100.00
14253;BME280;7210;51.502;10.722;2022-08-19T04:59:43;99084.63;;;19.32;100.00
14253;BME280;7210;51.502;10.722;2022-08-19T05:02:12;99083.63;;;19.28;100.00
14253;BME280;7210;51.502;10.722;2022-08-19T05:04:39;99084.03;;;19.35;100.00
14253;BME280;7210;51.502;10.722;2022-08-19T05:07:08;99082.66;;;19.37;100.00
14253;BME280;7210;51.502;10.722;2022-08-19T05:09:35;99088.63;;;19.34;100.00
14253;BME280;7210;51.502;10.722;2022-08-19T05:12:04;99096.13;;;19.32;100.00
14253;BME280;7210;51.502;10.722;2022-08-19T05:14:32;99099.91;;;19.31;100.00
14253;BME280;7210;51.502;10.722;2022-08-19T05:17:01;99103.41;;;19.32;100.00
14253;BME280;7210;51.502;10.722;2022-08-19T05:19:28;99099.34;;;19.34;100.00
14253;BME280;7210;51.502;10.722;2022-08-19T05:22:14;99094.97;;;19.38;100.00
14253;BME280;7210;51.502;10.722;2022-08-19T05:25:17;99090.97;;;19.36;100.00
14253;BME280;7210;51.502;10.722;2022-08-19T05:31:21;99086.03;;;19.42;100.00
14253;BME280;7210;51.502;10.722;2022-08-19T05:33:48;99089.03;;;19.41;100.00
14253;BME280;7210;51.502;10.722;2022-08-19T05:36:16;99081.97;;;19.45;100.00
14253;BME280;7210;51.502;10.722;2022-08-19T05:38:46;99098.53;;;19.47;100.00
14253;BME280;7210;51.502;10.722;2022-08-19T05:41:15;99101.63;;;19.54;100.00
14253;BME280;7210;51.502;10.722;2022-08-19T05:43:43;99109.88;;;19.57;100.00
14253;BME280;7210;51.502;10.722;2022-08-19T05:46:17;99110.91;;;19.61;100.00
14253;BME280;7210;51.502;10.722;2022-08-19T05:48:45;99108.41;;;19.65;100.00
14253;BME280;7210;51.502;10.722;2022-08-19T05:51:12;99119.22;;;19.60;100.00
14253;BME280;7210;51.502;10.722;2022-08-19T05:53:43;99119.94;;;19.65;100.00
14253;BME280;7210;51.502;10.722;2022-08-19T05:56:15;99120.22;;;19.64;100.00
14253;BME280;7210;51.502;10.722;2022-08-19T05:58:44;99118.22;;;19.56;100.00
14253;BME280;7210;51.502;10.722;2022-08-19T06:01:16;99122.72;;;19.60;100.00
14253;BME280;7210;51.502;10.722;2022-08-19T06:03:45;99122.41;;;19.62;100.00
14253;BME280;7210;51.502;10.722;2022-08-19T06:06:15;99120.13;;;19.69;100.00
14253;BME280;7210;51.502;10.722;2022-08-19T06:08:44;99115.16;;;19.76;100.00
14253;BME280;7210;51.502;10.722;2022-08-19T06:11:21;99118.84;;;19.80;100.00
14253;BME280;7210;51.502;10.722;2022-08-19T06:13:51;99119.75;;;19.89;99.11
14253;BME280;7210;51.502;10.722;2022-08-19T06:16:20;99113.50;;;19.80;98.32
14253;BME280;7210;51.502;10.722;2022-08-19T06:18:49;99125.81;;;19.81;97.77
14253;BME280;7210;51.502;10.722;2022-08-19T06:21:21;99123.91;;;19.81;97.19
14253;BME280;7210;51.502;10.722;2022-08-19T06:23:53;99128.19;;;19.82;96.80
14253;BME280;7210;51.502;10.722;2022-08-19T06:26:24;99132.16;;;19.85;96.82
14253;BME280;7210;51.502;10.722;2022-08-19T06:28:52;99142.31;;;19.88;95.81
14253;BME280;7210;51.502;10.722;2022-08-19T06:31:24;99142.31;;;19.88;95.25
14253;BME280;7210;51.502;10.722;2022-08-19T06:34:00;99139.72;;;19.83;94.91
14253;BME280;7210;51.502;10.722;2022-08-19T06:36:32;99143.91;;;19.89;95.12
14253;BME280;7210;51.502;10.722;2022-08-19T06:39:01;99142.69;;;19.95;94.50
14253;BME280;7210;51.502;10.722;2022-08-19T06:41:32;99146.19;;;19.95;94.61
14253;BME280;7210;51.502;10.722;2022-08-19T06:44:01;99159.81;;;19.99;94.02
14253;BME280;7210;51.502;10.722;2022-08-19T06:46:28;99158.50;;;19.96;93.66
14253;BME280;7210;51.502;10.722;2022-08-19T06:49:00;99167.56;;;20.00;93.19
14253;BME280;7210;51.502;10.722;2022-08-19T06:51:27;99164.22;;;20.08;92.79
14253;BME280;7210;51.502;10.722;2022-08-19T06:53:57;99170.88;;;20.11;91.68
14253;BME280;7210;51.502;10.722;2022-08-19T06:56:28;99179.22;;;20.09;90.76
14253;BME280;7210;51.502;10.722;2022-08-19T06:59:03;99171.38;;;20.13;91.34
14253;BME280;7210;51.502;10.722;2022-08-19T07:01:35;99170.75;;;20.16;90.89
14253;BME280;7210;51.502;10.722;2022-08-19T07:04:05;99178.13;;;20.24;89.89
14253;BME280;7210;51.502;10.722;2022-08-19T07:06:33;99177.16;;;20.20;89.74
14253;BME280;7210;51.502;10.722;2022-08-19T07:09:01;99176.63;;;20.18;89.23
14253;BME280;7210;51.502;10.722;2022-08-19T07:11:29;99185.69;;;20.22;88.93
14253;BME280;7210;51.502;10.722;2022-08-19T07:14:02;99183.97;;;20.26;88.72
14253;BME280;7210;51.502;10.722;2022-08-19T07:16:30;99191.53;;;20.24;88.85
14253;BME280;7210;51.502;10.722;2022-08-19T07:18:58;99181.28;;;20.26;88.79
14253;BME280;7210;51.502;10.722;2022-08-19T07:21:28;99178.72;;;20.34;88.08
14253;BME280;7210;51.502;10.722;2022-08-19T07:23:56;99179.91;;;20.28;87.61
14253;BME280;7210;51.502;10.722;2022-08-19T07:26:28;99175.91;;;20.26;88.45
14253;BME280;7210;51.502;10.722;2022-08-19T07:28:57;99187.06;;;20.33;88.07
14253;BME280;7210;51.502;10.722;2022-08-19T07:31:28;99193.53;;;20.32;87.27
14253;BME280;7210;51.502;10.722;2022-08-19T07:33:59;99207.75;;;20.32;87.29
14253;BME280;7210;51.502;10.722;2022-08-19T07:36:30;99201.09;;;20.30;86.22
14253;BME280;7210;51.502;10.722;2022-08-19T07:39:01;99204.88;;;20.29;86.95
14253;BME280;7210;51.502;10.722;2022-08-19T07:41:29;99201.91;;;20.30;87.04
14253;BME280;7210;51.502;10.722;2022-08-19T07:43:58;99203.59;;;20.26;86.13
14253;BME280;7210;51.502;10.722;2022-08-19T07:46:31;99203.47;;;20.18;86.76
14253;BME280;7210;51.502;10.722;2022-08-19T07:48:58;99201.88;;;20.17;86.80
14253;BME280;7210;51.502;10.722;2022-08-19T07:51:28;99196.63;;;20.12;86.60
14253;BME280;7210;51.502;10.722;2022-08-19T07:53:55;99208.16;;;20.12;86.74
14253;BME280;7210;51.502;10.722;2022-08-19T07:56:23;99212.13;;;20.15;86.69
14253;BME280;7210;51.502;10.722;2022-08-19T07:58:52;99215.44;;;20.12;86.50
14253;BME280;7210;51.502;10.722;2022-08-19T08:01:24;99215.91;;;20.14;86.37
14253;BME280;7210;51.502;10.722;2022-08-19T08:03:55;99214.63;;;20.11;86.53
14253;BME280;7210;51.502;10.722;2022-08-19T08:06:41;99212.81;;;20.07;86.98
14253;BME280;7210;51.502;10.722;2022-08-19T08:09:31;99222.97;;;20.10;87.00
14253;BME280;7210;51.502;10.722;2022-08-19T08:12:02;99220.28;;;20.10;86.25
14253;BME280;7210;51.502;10.722;2022-08-19T08:14:34;99218.47;;;20.05;85.68
14253;BME280;7210;51.502;10.722;2022-08-19T08:17:04;99225.44;;;20.06;85.99
14253;BME280;7210;51.502;10.722;2022-08-19T08:19:34;99232.44;;;20.07;85.50
14253;BME280;7210;51.502;10.722;2022-08-19T08:22:02;99223.47;;;20.12;85.94
14253;BME280;7210;51.502;10.722;2022-08-19T08:24:32;99216.53;;;20.11;85.34
14253;BME280;7210;51.502;10.722;2022-08-19T08:27:01;99235.19;;;20.16;85.56
14253;BME280;7210;51.502;10.722;2022-08-19T08:29:33;99229.34;;;20.14;85.69
14253;BME280;7210;51.502;10.722;2022-08-19T08:32:01;99208.94;;;19.99;85.72
14253;BME280;7210;51.502;10.722;2022-08-19T08:34:29;99243.25;;;20.16;85.61
14253;BME280;7210;51.502;10.722;2022-08-19T08:37:00;99243.19;;;20.21;85.49
14253;BME280;7210;51.502;10.722;2022-08-19T08:39:30;99242.97;;;20.17;85.26
14253;BME280;7210;51.502;10.722;2022-08-19T08:42:11;99238.00;;;20.24;85.27
14253;BME280;7210;51.502;10.722;2022-08-19T08:44:51;99245.16;;;20.29;85.14
14253;BME280;7210;51.502;10.722;2022-08-19T08:47:25;99246.16;;;20.33;84.82
14253;BME280;7210;51.502;10.722;2022-08-19T08:49:59;99250.75;;;20.32;84.57
14253;BME280;7210;51.502;10.722;2022-08-19T08:52:34;99257.28;;;20.40;84.19
14253;BME280;7210;51.502;10.722;2022-08-19T08:55:10;99257.41;;;20.48;83.64
14253;BME280;7210;51.502;10.722;2022-08-19T08:57:47;99258.69;;;20.51;83.05
14253;BME280;7210;51.502;10.722;2022-08-19T09:00:23;99257.47;;;20.57;83.11
14253;BME280;7210;51.502;10.722;2022-08-19T09:02:53;99262.88;;;20.70;82.54
14253;BME280;7210;51.502;10.722;2022-08-19T09:05:25;99260.88;;;20.76;81.74
14253;BME280;7210;51.502;10.722;2022-08-19T09:08:06;99275.41;;;20.75;81.51
14253;BME280;7210;51.502;10.722;2022-08-19T09:10:39;99268.63;;;20.77;81.58
14253;BME280;7210;51.502;10.722;2022-08-19T09:13:20;99277.88;;;20.85;81.15
14253;BME280;7210;51.502;10.722;2022-08-19T09:15:59;99289.72;;;20.84;81.19
14253;BME280;7210;51.502;10.722;2022-08-19T09:18:40;99280.97;;;20.92;80.52
14253;BME280;7210;51.502;10.722;2022-08-19T09:21:08;99273.53;;;20.89;80.36
14253;BME280;7210;51.502;10.722;2022-08-19T09:23:44;99278.19;;;20.97;80.06
14253;BME280;7210;51.502;10.722;2022-08-19T09:26:20;99281.84;;;21.01;79.26
14253;BME280;7210;51.502;10.722;2022-08-19T09:28:54;99277.34;;;21.10;78.71
14253;BME280;7210;51.502;10.722;2022-08-19T09:31:27;99281.91;;;21.23;78.27
14253;BME280;7210;51.502;10.722;2022-08-19T09:33:55;99275.69;;;21.36;77.43
14253;BME280;7210;51.502;10.722;2022-08-19T09:36:27;99277.22;;;21.50;76.63
14253;BME280;7210;51.502;10.722;2022-08-19T09:39:00;99271.09;;;21.58;76.58
14253;BME280;7210;51.502;10.722;2022-08-19T09:41:27;99281.91;;;21.80;76.39
14253;BME280;7210;51.502;10.722;2022-08-19T09:43:57;99280.97;;;22.07;74.72
14253;BME280;7210;51.502;10.722;2022-08-19T09:46:27;99279.09;;;22.16;74.79
14253;BME280;7210;51.502;10.722;2022-08-19T09:48:59;99284.81;;;22.45;74.08
14253;BME280;7210;51.502;10.722;2022-08-19T09:51:28;99289.97;;;22.63;73.65
14253;BME280;7210;51.502;10.722;2022-08-19T09:54:03;99289.66;;;22.73;72.55
14253;BME280;7210;51.502;10.722;2022-08-19T09:56:32;99286.94;;;22.65;72.09
14253;BME280;7210;51.502;10.722;2022-08-19T09:59:00;99289.50;;;22.70;71.30
14253;BME280;7210;51.502;10.722;2022-08-19T10:01:30;99286.78;;;22.70;70.66
14253;BME280;7210;51.502;10.722;2022-08-19T10:04:00;99284.75;;;22.67;70.98
14253;BME280;7210;51.502;10.722;2022-08-19T10:06:29;99273.00;;;22.71;69.61
14253;BME280;7210;51.502;10.722;2022-08-19T10:08:59;99265.88;;;22.67;68.95
14253;BME280;7210;51.502;10.722;2022-08-19T10:11:27;99259.34;;;22.68;68.75
14253;BME280;7210;51.502;10.722;2022-08-19T10:13:55;99257.47;;;22.77;69.43
14253;BME280;7210;51.502;10.722;2022-08-19T10:16:23;99257.66;;;22.97;68.56
14253;BME280;7210;51.502;10.722;2022-08-19T10:18:53;99250.22;;;23.03;67.89
14253;BME280;7210;51.502;10.722;2022-08-19T10:21:24;99247.41;;;23.25;67.54
14253;BME280;7210;51.502;10.722;2022-08-19T10:23:55;99252.31;;;23.31;66.63
14253;BME280;7210;51.502;10.722;2022-08-19T10:26:27;99242.97;;;23.20;66.45
14253;BME280;7210;51.502;10.722;2022-08-19T10:28:56;99235.19;;;23.27;65.33
14253;BME280;7210;51.502;10.722;2022-08-19T10:31:27;99245.66;;;23.46;65.31
14253;BME280;7210;51.502;10.722;2022-08-19T10:33:57;99239.63;;;23.40;64.31
14253;BME280;7210;51.502;10.722;2022-08-19T10:36:28;99237.06;;;23.44;64.62
14253;BME280;7210;51.502;10.722;2022-08-19T10:38:59;99230.56;;;23.45;64.75
14253;BME280;7210;51.502;10.722;2022-08-19T10:41:32;99234.97;;;23.58;64.25
14253;BME280;7210;51.502;10.722;2022-08-19T10:44:04;99231.66;;;23.61;64.13
14253;BME280;7210;51.502;10.722;2022-08-19T10:46:36;99226.69;;;23.79;64.31
14253;BME280;7210;51.502;10.722;2022-08-19T10:49:05;99239.09;;;23.89;63.41
14253;BME280;7210;51.502;10.722;2022-08-19T10:51:32;99237.44;;;24.13;62.58
14253;BME280;7210;51.502;10.722;2022-08-19T10:54:18;99219.28;;;24.22;62.33
14253;BME280;7210;51.502;10.722;2022-08-19T10:56:47;99224.16;;;24.29;60.33
14253;BME280;7210;51.502;10.722;2022-08-19T10:59:22;99215.81;;;24.13;60.58
14253;BME280;7210;51.502;10.722;2022-08-19T11:01:51;99211.63;;;24.24;61.25
14253;BME280;7210;51.502;10.722;2022-08-19T11:04:19;99216.06;;;24.20;60.29
14253;BME280;7210;51.502;10.722;2022-08-19T11:06:49;99210.50;;;24.25;60.42
14253;BME280;7210;51.502;10.722;2022-08-19T11:09:22;99198.94;;;24.16;59.82
14253;BME280;7210;51.502;10.722;2022-08-19T11:11:52;99203.88;;;24.14;60.29
14253;BME280;7210;51.502;10.722;2022-08-19T11:14:21;99204.22;;;24.04;59.00
14253;BME280;7210;51.502;10.722;2022-08-19T11:16:51;99195.56;;;23.91;58.74
14253;BME280;7210;51.502;10.722;2022-08-19T11:19:19;99195.72;;;23.77;58.63
14253;BME280;7210;51.502;10.722;2022-08-19T11:21:48;99195.75;;;23.69;60.69
14253;BME280;7210;51.502;10.722;2022-08-19T11:24:19;99200.97;;;23.73;60.60
14253;BME280;7210;51.502;10.722;2022-08-19T11:26:49;99201.09;;;23.77;59.96
14253;BME280;7210;51.502;10.722;2022-08-19T11:29:21;99196.63;;;23.98;59.49
14253;BME280;7210;51.502;10.722;2022-08-19T11:31:52;99193.59;;;24.37;58.64
14253;BME280;7210;51.502;10.722;2022-08-19T11:34:22;99195.91;;;24.55;56.80
14253;BME280;7210;51.502;10.722;2022-08-19T11:36:51;99200.16;;;24.85;57.30
14253;BME280;7210;51.502;10.722;2022-08-19T11:39:21;99179.97;;;25.03;56.85
14253;BME280;7210;51.502;10.722;2022-08-19T11:41:49;99183.31;;;25.41;55.68
14253;BME280;7210;51.502;10.722;2022-08-19T11:44:17;99185.19;;;25.61;54.76
14253;BME280;7210;51.502;10.722;2022-08-19T11:46:45;99184.19;;;25.78;53.77
14253;BME280;7210;51.502;10.722;2022-08-19T11:49:14;99194.44;;;26.05;53.50
14253;BME280;7210;51.502;10.722;2022-08-19T11:51:42;99202.44;;;26.13;52.84
14253;BME280;7210;51.502;10.722;2022-08-19T11:54:12;99183.47;;;26.01;51.29
14253;BME280;7210;51.502;10.722;2022-08-19T11:56:40;99204.03;;;26.14;52.78
14253;BME280;7210;51.502;10.722;2022-08-19T11:59:09;99193.41;;;26.21;53.22
14253;BME280;7210;51.502;10.722;2022-08-19T12:01:39;99191.81;;;26.44;51.40
14253;BME280;7210;51.502;10.722;2022-08-19T12:04:06;99184.38;;;26.53;50.55
14253;BME280;7210;51.502;10.722;2022-08-19T12:06:37;99180.09;;;26.64;50.39
14253;BME280;7210;51.502;10.722;2022-08-19T12:09:07;99180.97;;;26.68;49.96
14253;BME280;7210;51.502;10.722;2022-08-19T12:11:36;99185.03;;;26.50;50.59
14253;BME280;7210;51.502;10.722;2022-08-19T12:14:04;99187.44;;;26.64;50.04
14253;BME280;7210;51.502;10.722;2022-08-19T12:16:32;99179.19;;;26.60;49.76
14253;BME280;7210;51.502;10.722;2022-08-19T12:19:04;99173.31;;;26.58;50.29
14253;BME280;7210;51.502;10.722;2022-08-19T12:21:34;99190.25;;;26.79;49.94
14253;BME280;7210;51.502;10.722;2022-08-19T12:24:04;99186.09;;;26.58;50.46
14253;BME280;7210;51.502;10.722;2022-08-19T12:26:38;99176.94;;;26.62;49.58
14253;BME280;7210;51.502;10.722;2022-08-19T12:29:05;99180.88;;;26.65;49.98
14253;BME280;7210;51.502;10.722;2022-08-19T12:31:39;99181.34;;;26.55;49.13
14253;BME280;7210;51.502;10.722;2022-08-19T12:34:11;99182.22;;;26.71;48.72
14253;BME280;7210;51.502;10.722;2022-08-19T12:36:38;99183.34;;;26.70;50.00
14253;BME280;7210;51.502;10.722;2022-08-19T12:39:05;99179.50;;;26.83;48.92
14253;BME280;7210;51.502;10.722;2022-08-19T12:41:34;99189.06;;;26.92;48.19
14253;BME280;7210;51.502;10.722;2022-08-19T12:44:02;99180.56;;;27.06;49.01
14253;BME280;7210;51.502;10.722;2022-08-19T12:46:31;99179.66;;;27.41;48.79
14253;BME280;7210;51.502;10.722;2022-08-19T12:48:58;99187.41;;;27.27;48.12
14253;BME280;7210;51.502;10.722;2022-08-19T12:51:27;99181.22;;;27.03;47.46
14253;BME280;7210;51.502;10.722;2022-08-19T12:53:54;99178.41;;;26.99;48.83
14253;BME280;7210;51.502;10.722;2022-08-19T12:56:21;99177.72;;;27.02;48.18
14253;BME280;7210;51.502;10.722;2022-08-19T12:58:49;99180.91;;;26.92;48.18
14253;BME280;7210;51.502;10.722;2022-08-19T13:01:19;99177.38;;;27.04;48.03
14253;BME280;7210;51.502;10.722;2022-08-19T13:03:46;99182.03;;;27.03;48.45
14253;BME280;7210;51.502;10.722;2022-08-19T13:06:17;99164.16;;;27.02;48.49
14253;BME280;7210;51.502;10.722;2022-08-19T13:08:47;99168.63;;;27.22;48.27
14253;BME280;7210;51.502;10.722;2022-08-19T13:11:17;99167.41;;;27.20;47.52
14253;BME280;7210;51.502;10.722;2022-08-19T13:13:48;99168.47;;;26.91;48.21
14253;BME280;7210;51.502;10.722;2022-08-19T13:16:18;99164.69;;;27.08;48.58
14253;BME280;7210;51.502;10.722;2022-08-19T13:18:47;99162.84;;;27.12;48.83
14253;BME280;7210;51.502;10.722;2022-08-19T13:21:23;99164.34;;;27.21;48.02